sensor_id;sensor_type;location;lat;lon;timestamp;temperature;humidity
27637;DHT22;15049;48.114;11.486;2022-07-06T00:00:34;18.50;30.20
27637;DHT22;15049;48.114;11.486;2022-07-06T00:03:00;18.20;30.40
27637;DHT22;15049;48.114;11.486;2022-07-06T00:05:26;18.40;31.00
27637;DHT22;15049;48.114;11.486;2022-07-06T00:07:52;18.40;30.70
27637;DHT22;15049;48.114;11.486;2022-07-06T00:10:17;18.50;31.10
27637;DHT22;15049;48.114;11.486;2022-07-06T00:12:44;18.30;31.20
27637;DHT22;15049;48.114;11.486;2022-07-06T00:15:10;18.50;31.00
27637;DHT22;15049;48.114;11.486;2022-07-06T00:17:36;18.50;31.40
27637;DHT22;15049;48.114;11.486;2022-07-06T00:20:02;18.40;31.90
27637;DHT22;15049;48.114;11.486;2022-07-06T00:22:28;18.50;31.80
27637;DHT22;15049;48.114;11.486;2022-07-06T00:24:54;18.50;32.20
27637;DHT22;15049;48.114;11.486;2022-07-06T00:27:20;18.60;32.30
27637;DHT22;15049;48.114;11.486;2022-07-06T00:29:47;18.30;32.80
27637;DHT22;15049;48.114;11.486;2022-07-06T00:32:12;18.20;33.10
27637;DHT22;15049;48.114;11.486;2022-07-06T00:34:39;18.40;33.10
27637;DHT22;15049;48.114;11.486;2022-07-06T00:37:05;18.40;33.70
27637;DHT22;15049;48.114;11.486;2022-07-06T00:39:31;18.40;33.80
27637;DHT22;15049;48.114;11.486;2022-07-06T00:41:57;18.00;33.60
27637;DHT22;15049;48.114;11.486;2022-07-06T00:44:22;18.30;34.30
27637;DHT22;15049;48.114;11.486;2022-07-06T00:46:50;18.40;34.70
27637;DHT22;15049;48.114;11.486;2022-07-06T00:49:16;18.30;33.70
27637;DHT22;15049;48.114;11.486;2022-07-06T00:52:00;17.90;34.00
27637;DHT22;15049;48.114;11.486;2022-07-06T00:54:26;18.00;34.50
27637;DHT22;15049;48.114;11.486;2022-07-06T00:56:53;18.20;34.40
27637;DHT22;15049;48.114;11.486;2022-07-06T00:59:19;18.20;34.90
27637;DHT22;15049;48.114;11.486;2022-07-06T01:01:45;18.00;35.00
27637;DHT22;15049;48.114;11.486;2022-07-06T01:04:12;17.90;35.40
27637;DHT22;15049;48.114;11.486;2022-07-06T01:06:38;18.10;36.00
27637;DHT22;15049;48.114;11.486;2022-07-06T01:09:04;18.10;36.40
27637;DHT22;15049;48.114;11.486;2022-07-06T01:11:30;17.90;36.30
27637;DHT22;15049;48.114;11.486;2022-07-06T01:13:56;17.70;37.00
27637;DHT22;15049;48.114;11.486;2022-07-06T01:16:23;17.90;37.50
27637;DHT22;15049;48.114;11.486;2022-07-06T01:18:49;17.80;37.30
27637;DHT22;15049;48.114;11.486;2022-07-06T01:21:16;17.90;38.30
27637;DHT22;15049;48.114;11.486;2022-07-06T01:23:43;17.80;38.80
27637;DHT22;15049;48.114;11.486;2022-07-06T01:26:11;17.70;38.80
27637;DHT22;15049;48.114;11.486;2022-07-06T01:28:37;17.80;39.30
27637;DHT22;15049;48.114;11.486;2022-07-06T01:31:03;17.90;39.90
27637;DHT22;15049;48.114;11.486;2022-07-06T01:33:29;17.60;39.40
27637;DHT22;15049;48.114;11.486;2022-07-06T01:35:55;17.60;39.80
27637;DHT22;15049;48.114;11.486;2022-07-06T01:38:22;17.50;39.80
27637;DHT22;15049;48.114;11.486;2022-07-06T01:40:48;17.60;39.50
27637;DHT22;15049;48.114;11.486;2022-07-06T01:43:13;17.40;39.80
27637;DHT22;15049;48.114;11.486;2022-07-06T01:45:39;17.30;39.60
27637;DHT22;15049;48.114;11.486;2022-07-06T01:48:05;17.50;40.00
27637;DHT22;15049;48.114;11.486;2022-07-06T01:50:31;17.40;39.90
27637;DHT22;15049;48.114;11.486;2022-07-06T01:52:59;17.30;40.00
27637;DHT22;15049;48.114;11.486;2022-07-06T01:55:26;17.20;39.50
27637;DHT22;15049;48.114;11.486;2022-07-06T01:57:52;17.30;40.40
27637;DHT22;15049;48.114;11.486;2022-07-06T02:00:18;17.00;40.10
27637;DHT22;15049;48.114;11.486;2022-07-06T02:02:44;17.10;40.60
27637;DHT22;15049;48.114;11.486;2022-07-06T02:05:09;17.30;40.70
27637;DHT22;15049;48.114;11.486;2022-07-06T02:07:35;17.10;41.00
27637;DHT22;15049;48.114;11.486;2022-07-06T02:10:01;17.10;41.50
27637;DHT22;15049;48.114;11.486;2022-07-06T02:12:28;16.90;40.90
27637;DHT22;15049;48.114;11.486;2022-07-06T02:14:53;17.00;41.50
27637;DHT22;15049;48.114;11.486;2022-07-06T02:17:19;17.10;41.60
27637;DHT22;15049;48.114;11.486;2022-07-06T02:19:45;16.90;41.40
27637;DHT22;15049;48.114;11.486;2022-07-06T02:22:11;17.20;42.30
27637;DHT22;15049;48.114;11.486;2022-07-06T02:24:36;16.90;42.60
27637;DHT22;15049;48.114;11.486;2022-07-06T02:27:03;16.80;42.50
27637;DHT22;15049;48.114;11.486;2022-07-06T02:29:30;17.00;43.10
27637;DHT22;15049;48.114;11.486;2022-07-06T02:31:55;16.80;43.60
27637;DHT22;15049;48.114;11.486;2022-07-06T02:34:21;16.60;43.90
27637;DHT22;15049;48.114;11.486;2022-07-06T02:36:47;16.50;44.10
27637;DHT22;15049;48.114;11.486;2022-07-06T02:39:13;16.70;45.30
27637;DHT22;15049;48.114;11.486;2022-07-06T02:41:39;16.40;46.20
27637;DHT22;15049;48.114;11.486;2022-07-06T02:44:05;16.50;47.60
27637;DHT22;15049;48.114;11.486;2022-07-06T02:46:32;16.70;48.50
27637;DHT22;15049;48.114;11.486;2022-07-06T02:48:58;16.40;49.60
27637;DHT22;15049;48.114;11.486;2022-07-06T02:51:23;16.20;50.90
27637;DHT22;15049;48.114;11.486;2022-07-06T02:53:49;16.10;51.60
27637;DHT22;15049;48.114;11.486;2022-07-06T02:56:15;16.20;52.60
27637;DHT22;15049;48.114;11.486;2022-07-06T02:58:41;16.30;54.30
27637;DHT22;15049;48.114;11.486;2022-07-06T03:01:06;16.40;56.00
27637;DHT22;15049;48.114;11.486;2022-07-06T03:03:34;16.40;57.40
27637;DHT22;15049;48.114;11.486;2022-07-06T03:05:59;16.50;59.10
27637;DHT22;15049;48.114;11.486;2022-07-06T03:08:25;16.10;59.50
27637;DHT22;15049;48.114;11.486;2022-07-06T03:10:51;16.00;60.80
27637;DHT22;15049;48.114;11.486;2022-07-06T03:13:17;16.20;62.30
27637;DHT22;15049;48.114;11.486;2022-07-06T03:15:42;15.90;62.50
27637;DHT22;15049;48.114;11.486;2022-07-06T03:18:08;16.10;62.70
27637;DHT22;15049;48.114;11.486;2022-07-06T03:20:35;16.10;64.50
27637;DHT22;15049;48.114;11.486;2022-07-06T03:23:01;16.20;64.50
27637;DHT22;15049;48.114;11.486;2022-07-06T03:25:27;15.90;63.90
27637;DHT22;15049;48.114;11.486;2022-07-06T03:27:52;15.90;63.30
27637;DHT22;15049;48.114;11.486;2022-07-06T03:30:18;16.20;64.00
27637;DHT22;15049;48.114;11.486;2022-07-06T03:32:44;15.90;63.80
27637;DHT22;15049;48.114;11.486;2022-07-06T03:35:10;16.10;64.00
27637;DHT22;15049;48.114;11.486;2022-07-06T03:37:37;16.20;64.50
27637;DHT22;15049;48.114;11.486;2022-07-06T03:40:03;16.20;65.00
27637;DHT22;15049;48.114;11.486;2022-07-06T03:42:29;16.20;66.80
27637;DHT22;15049;48.114;11.486;2022-07-06T03:44:55;16.10;66.70
27637;DHT22;15049;48.114;11.486;2022-07-06T03:47:21;16.20;66.60
27637;DHT22;15049;48.114;11.486;2022-07-06T03:49:46;15.90;66.70
27637;DHT22;15049;48.114;11.486;2022-07-06T03:52:12;15.80;67.70
27637;DHT22;15049;48.114;11.486;2022-07-06T03:54:39;16.20;68.40
27637;DHT22;15049;48.114;11.486;2022-07-06T03:57:05;16.20;68.30
27637;DHT22;15049;48.114;11.486;2022-07-06T03:59:31;16.20;68.50
27637;DHT22;15049;48.114;11.486;2022-07-06T04:01:56;16.10;69.10
27637;DHT22;15049;48.114;11.486;2022-07-06T04:04:22;16.00;68.60
27637;DHT22;15049;48.114;11.486;2022-07-06T04:06:48;16.00;68.80
27637;DHT22;15049;48.114;11.486;2022-07-06T04:09:14;16.30;69.20
27637;DHT22;15049;48.114;11.486;2022-07-06T04:11:41;16.10;69.00
27637;DHT22;15049;48.114;11.486;2022-07-06T04:14:06;16.20;68.70
27637;DHT22;15049;48.114;11.486;2022-07-06T04:16:32;16.20;68.70
27637;DHT22;15049;48.114;11.486;2022-07-06T04:18:58;16.20;69.40
27637;DHT22;15049;48.114;11.486;2022-07-06T04:21:24;16.00;69.80
27637;DHT22;15049;48.114;11.486;2022-07-06T04:23:49;16.30;69.90
27637;DHT22;15049;48.114;11.486;2022-07-06T04:26:15;16.50;69.70
27637;DHT22;15049;48.114;11.486;2022-07-06T04:28:42;16.60;69.80
27637;DHT22;15049;48.114;11.486;2022-07-06T04:31:08;16.30;68.80
27637;DHT22;15049;48.114;11.486;2022-07-06T04:33:34;16.40;69.30
27637;DHT22;15049;48.114;11.486;2022-07-06T04:36:00;16.50;71.70
27637;DHT22;15049;48.114;11.486;2022-07-06T04:38:26;16.40;71.80
27637;DHT22;15049;48.114;11.486;2022-07-06T04:40:51;16.40;72.20
27637;DHT22;15049;48.114;11.486;2022-07-06T04:43:17;16.50;71.40
27637;DHT22;15049;48.114;11.486;2022-07-06T04:45:44;17.00;70.20
27637;DHT22;15049;48.114;11.486;2022-07-06T04:48:10;16.70;68.50
27637;DHT22;15049;48.114;11.486;2022-07-06T04:50:36;16.80;68.20
27637;DHT22;15049;48.114;11.486;2022-07-06T04:53:01;17.10;68.70
27637;DHT22;15049;48.114;11.486;2022-07-06T04:55:27;16.90;68.30
27637;DHT22;15049;48.114;11.486;2022-07-06T04:57:53;17.20;67.80
27637;DHT22;15049;48.114;11.486;2022-07-06T05:00:19;17.20;68.60
27637;DHT22;15049;48.114;11.486;2022-07-06T05:02:46;17.30;65.90
27637;DHT22;15049;48.114;11.486;2022-07-06T05:05:12;17.30;65.70
27637;DHT22;15049;48.114;11.486;2022-07-06T05:07:37;17.50;66.40
27637;DHT22;15049;48.114;11.486;2022-07-06T05:10:06;17.20;63.50
27637;DHT22;15049;48.114;11.486;2022-07-06T05:12:32;17.50;62.70
27637;DHT22;15049;48.114;11.486;2022-07-06T05:14:58;17.60;60.30
27637;DHT22;15049;48.114;11.486;2022-07-06T05:17:25;17.80;58.70
27637;DHT22;15049;48.114;11.486;2022-07-06T05:19:52;18.00;55.90
27637;DHT22;15049;48.114;11.486;2022-07-06T05:22:18;18.30;49.80
27637;DHT22;15049;48.114;11.486;2022-07-06T05:24:44;18.30;48.50
27637;DHT22;15049;48.114;11.486;2022-07-06T05:27:10;18.50;44.40
27637;DHT22;15049;48.114;11.486;2022-07-06T05:29:36;18.20;43.70
27637;DHT22;15049;48.114;11.486;2022-07-06T05:32:02;18.50;41.10
27637;DHT22;15049;48.114;11.486;2022-07-06T05:34:28;18.80;40.30
27637;DHT22;15049;48.114;11.486;2022-07-06T05:36:55;18.70;39.90
27637;DHT22;15049;48.114;11.486;2022-07-06T05:39:21;18.80;39.30
27637;DHT22;15049;48.114;11.486;2022-07-06T05:41:48;18.90;38.50
27637;DHT22;15049;48.114;11.486;2022-07-06T05:44:14;18.60;38.80
27637;DHT22;15049;48.114;11.486;2022-07-06T05:46:40;18.50;39.50
27637;DHT22;15049;48.114;11.486;2022-07-06T05:49:06;18.50;40.00
27637;DHT22;15049;48.114;11.486;2022-07-06T05:51:50;18.60;39.70
27637;DHT22;15049;48.114;11.486;2022-07-06T05:54:17;18.60;40.00
27637;DHT22;15049;48.114;11.486;2022-07-06T05:56:43;18.70;40.00
27637;DHT22;15049;48.114;11.486;2022-07-06T05:59:09;18.80;39.60
27637;DHT22;15049;48.114;11.486;2022-07-06T06:01:35;18.90;39.10
27637;DHT22;15049;48.114;11.486;2022-07-06T06:04:01;18.60;39.30
27637;DHT22;15049;48.114;11.486;2022-07-06T06:06:27;18.90;39.70
27637;DHT22;15049;48.114;11.486;2022-07-06T06:08:53;19.00;37.70
27637;DHT22;15049;48.114;11.486;2022-07-06T06:11:20;19.00;36.90
27637;DHT22;15049;48.114;11.486;2022-07-06T06:13:45;19.00;34.90
27637;DHT22;15049;48.114;11.486;2022-07-06T06:16:11;18.90;35.00
27637;DHT22;15049;48.114;11.486;2022-07-06T06:18:37;18.70;34.80
27637;DHT22;15049;48.114;11.486;2022-07-06T06:21:03;18.80;34.80
27637;DHT22;15049;48.114;11.486;2022-07-06T06:23:28;19.00;34.80
27637;DHT22;15049;48.114;11.486;2022-07-06T06:25:56;18.90;35.20
27637;DHT22;15049;48.114;11.486;2022-07-06T06:28:23;18.90;34.50
27637;DHT22;15049;48.114;11.486;2022-07-06T06:30:49;19.10;33.10
27637;DHT22;15049;48.114;11.486;2022-07-06T06:33:16;19.00;33.70
27637;DHT22;15049;48.114;11.486;2022-07-06T06:35:43;18.90;33.80
27637;DHT22;15049;48.114;11.486;2022-07-06T06:38:09;19.20;32.70
27637;DHT22;15049;48.114;11.486;2022-07-06T06:40:35;19.20;32.20
27637;DHT22;15049;48.114;11.486;2022-07-06T06:43:01;19.10;32.60
27637;DHT22;15049;48.114;11.486;2022-07-06T06:45:28;19.20;32.60
27637;DHT22;15049;48.114;11.486;2022-07-06T06:47:54;19.20;31.10
27637;DHT22;15049;48.114;11.486;2022-07-06T06:50:20;19.00;31.40
27637;DHT22;15049;48.114;11.486;2022-07-06T06:52:46;19.30;31.90
27637;DHT22;15049;48.114;11.486;2022-07-06T06:55:12;19.30;32.50
27637;DHT22;15049;48.114;11.486;2022-07-06T06:57:38;19.50;31.70
27637;DHT22;15049;48.114;11.486;2022-07-06T07:00:05;19.50;30.80
27637;DHT22;15049;48.114;11.486;2022-07-06T07:02:33;19.40;31.40
27637;DHT22;15049;48.114;11.486;2022-07-06T07:04:59;19.30;32.30
27637;DHT22;15049;48.114;11.486;2022-07-06T07:07:25;19.50;31.50
27637;DHT22;15049;48.114;11.486;2022-07-06T07:09:50;19.10;30.70
27637;DHT22;15049;48.114;11.486;2022-07-06T07:12:16;19.60;30.80
27637;DHT22;15049;48.114;11.486;2022-07-06T07:14:42;19.50;31.00
27637;DHT22;15049;48.114;11.486;2022-07-06T07:17:08;19.50;30.30
27637;DHT22;15049;48.114;11.486;2022-07-06T07:19:35;19.60;29.60
27637;DHT22;15049;48.114;11.486;2022-07-06T07:22:01;19.70;29.40
27637;DHT22;15049;48.114;11.486;2022-07-06T07:24:26;19.80;29.10
27637;DHT22;15049;48.114;11.486;2022-07-06T07:26:52;19.90;29.00
27637;DHT22;15049;48.114;11.486;2022-07-06T07:29:18;19.90;28.30
27637;DHT22;15049;48.114;11.486;2022-07-06T07:31:44;19.90;28.70
27637;DHT22;15049;48.114;11.486;2022-07-06T07:34:09;20.20;28.30
27637;DHT22;15049;48.114;11.486;2022-07-06T07:36:36;20.20;28.10
27637;DHT22;15049;48.114;11.486;2022-07-06T07:39:03;20.30;28.00
27637;DHT22;15049;48.114;11.486;2022-07-06T07:41:30;20.40;27.70
27637;DHT22;15049;48.114;11.486;2022-07-06T07:43:56;20.40;26.80
27637;DHT22;15049;48.114;11.486;2022-07-06T07:46:21;20.50;25.80
27637;DHT22;15049;48.114;11.486;2022-07-06T07:48:47;20.50;24.90
27637;DHT22;15049;48.114;11.486;2022-07-06T07:51:13;20.50;25.70
27637;DHT22;15049;48.114;11.486;2022-07-06T07:53:40;20.50;26.10
27637;DHT22;15049;48.114;11.486;2022-07-06T07:56:06;20.60;26.70
27637;DHT22;15049;48.114;11.486;2022-07-06T07:58:32;20.60;27.20
27637;DHT22;15049;48.114;11.486;2022-07-06T08:00:58;20.70;24.60
27637;DHT22;15049;48.114;11.486;2022-07-06T08:03:23;20.80;25.10
27637;DHT22;15049;48.114;11.486;2022-07-06T08:05:49;21.00;22.70
27637;DHT22;15049;48.114;11.486;2022-07-06T08:08:16;20.90;23.40
27637;DHT22;15049;48.114;11.486;2022-07-06T08:10:43;21.00;23.20
27637;DHT22;15049;48.114;11.486;2022-07-06T08:13:10;21.00;23.30
27637;DHT22;15049;48.114;11.486;2022-07-06T08:15:36;20.90;23.30
27637;DHT22;15049;48.114;11.486;2022-07-06T08:18:02;21.00;23.80
27637;DHT22;15049;48.114;11.486;2022-07-06T08:20:28;21.10;23.10
27637;DHT22;15049;48.114;11.486;2022-07-06T08:22:54;21.00;23.80
27637;DHT22;15049;48.114;11.486;2022-07-06T08:25:19;21.00;23.70
27637;DHT22;15049;48.114;11.486;2022-07-06T08:27:47;21.00;23.70
27637;DHT22;15049;48.114;11.486;2022-07-06T08:30:12;21.00;24.30
27637;DHT22;15049;48.114;11.486;2022-07-06T08:32:38;21.00;24.10
27637;DHT22;15049;48.114;11.486;2022-07-06T08:35:05;21.10;24.70
27637;DHT22;15049;48.114;11.486;2022-07-06T08:37:31;21.30;24.80
27637;DHT22;15049;48.114;11.486;2022-07-06T08:39:57;21.50;24.40
27637;DHT22;15049;48.114;11.486;2022-07-06T08:42:23;21.60;24.60
27637;DHT22;15049;48.114;11.486;2022-07-06T08:44:53;21.60;24.20
27637;DHT22;15049;48.114;11.486;2022-07-06T08:47:20;21.60;23.80
27637;DHT22;15049;48.114;11.486;2022-07-06T08:49:46;21.60;23.30
27637;DHT22;15049;48.114;11.486;2022-07-06T08:52:13;21.60;23.80
27637;DHT22;15049;48.114;11.486;2022-07-06T08:54:40;21.70;23.20
27637;DHT22;15049;48.114;11.486;2022-07-06T08:57:06;21.70;23.30
27637;DHT22;15049;48.114;11.486;2022-07-06T08:59:32;21.80;23.50
27637;DHT22;15049;48.114;11.486;2022-07-06T09:02:00;21.90;22.00
27637;DHT22;15049;48.114;11.486;2022-07-06T09:04:27;21.90;22.80
27637;DHT22;15049;48.114;11.486;2022-07-06T09:06:54;22.00;22.50
27637;DHT22;15049;48.114;11.486;2022-07-06T09:09:22;22.00;22.20
27637;DHT22;15049;48.114;11.486;2022-07-06T09:11:49;22.00;22.00
27637;DHT22;15049;48.114;11.486;2022-07-06T09:14:15;22.10;21.40
27637;DHT22;15049;48.114;11.486;2022-07-06T09:16:41;22.10;21.70
27637;DHT22;15049;48.114;11.486;2022-07-06T09:19:10;22.30;20.90
27637;DHT22;15049;48.114;11.486;2022-07-06T09:21:36;22.10;21.00
27637;DHT22;15049;48.114;11.486;2022-07-06T09:24:06;22.20;21.60
27637;DHT22;15049;48.114;11.486;2022-07-06T09:26:32;22.20;21.40
27637;DHT22;15049;48.114;11.486;2022-07-06T09:28:59;22.30;19.70
27637;DHT22;15049;48.114;11.486;2022-07-06T09:31:25;22.50;20.30
27637;DHT22;15049;48.114;11.486;2022-07-06T09:33:56;22.50;20.30
27637;DHT22;15049;48.114;11.486;2022-07-06T09:36:40;22.60;20.50
27637;DHT22;15049;48.114;11.486;2022-07-06T09:39:20;22.80;19.90
27637;DHT22;15049;48.114;11.486;2022-07-06T09:41:47;22.80;20.20
27637;DHT22;15049;48.114;11.486;2022-07-06T09:44:13;22.70;19.60
27637;DHT22;15049;48.114;11.486;2022-07-06T09:46:45;22.70;19.00
27637;DHT22;15049;48.114;11.486;2022-07-06T09:49:11;22.80;19.70
27637;DHT22;15049;48.114;11.486;2022-07-06T09:51:37;23.00;19.50
27637;DHT22;15049;48.114;11.486;2022-07-06T09:54:07;23.00;18.20
27637;DHT22;15049;48.114;11.486;2022-07-06T09:56:37;23.10;18.50
27637;DHT22;15049;48.114;11.486;2022-07-06T09:59:07;23.30;18.30
27637;DHT22;15049;48.114;11.486;2022-07-06T10:01:33;23.20;18.40
27637;DHT22;15049;48.114;11.486;2022-07-06T10:03:59;23.30;18.90
27637;DHT22;15049;48.114;11.486;2022-07-06T10:06:25;23.30;18.10
27637;DHT22;15049;48.114;11.486;2022-07-06T10:08:52;23.00;18.20
27637;DHT22;15049;48.114;11.486;2022-07-06T10:11:20;23.10;19.50
27637;DHT22;15049;48.114;11.486;2022-07-06T10:13:47;23.20;18.80
27637;DHT22;15049;48.114;11.486;2022-07-06T10:16:14;23.30;19.20
27637;DHT22;15049;48.114;11.486;2022-07-06T10:18:41;23.20;19.20
27637;DHT22;15049;48.114;11.486;2022-07-06T10:21:07;23.40;18.80
27637;DHT22;15049;48.114;11.486;2022-07-06T10:23:34;23.60;18.90
27637;DHT22;15049;48.114;11.486;2022-07-06T10:26:02;23.80;19.10
27637;DHT22;15049;48.114;11.486;2022-07-06T10:28:31;24.00;19.30
27637;DHT22;15049;48.114;11.486;2022-07-06T10:30:57;24.10;18.40
27637;DHT22;15049;48.114;11.486;2022-07-06T10:33:23;24.40;19.20
27637;DHT22;15049;48.114;11.486;2022-07-06T10:35:49;24.50;17.30
27637;DHT22;15049;48.114;11.486;2022-07-06T10:38:16;24.10;17.50
27637;DHT22;15049;48.114;11.486;2022-07-06T10:40:42;24.30;17.50
27637;DHT22;15049;48.114;11.486;2022-07-06T10:43:36;24.40;16.90
27637;DHT22;15049;48.114;11.486;2022-07-06T10:46:06;24.40;16.70
27637;DHT22;15049;48.114;11.486;2022-07-06T10:48:34;24.60;16.70
27637;DHT22;15049;48.114;11.486;2022-07-06T10:51:00;24.60;16.90
27637;DHT22;15049;48.114;11.486;2022-07-06T10:53:31;24.60;16.70
27637;DHT22;15049;48.114;11.486;2022-07-06T10:55:58;24.40;16.50
27637;DHT22;15049;48.114;11.486;2022-07-06T10:58:38;24.50;16.90
27637;DHT22;15049;48.114;11.486;2022-07-06T11:01:06;24.60;16.10
27637;DHT22;15049;48.114;11.486;2022-07-06T11:03:33;24.80;16.70
27637;DHT22;15049;48.114;11.486;2022-07-06T11:05:59;24.90;15.70
27637;DHT22;15049;48.114;11.486;2022-07-06T11:08:41;24.80;15.90
27637;DHT22;15049;48.114;11.486;2022-07-06T11:11:12;25.10;15.50
27637;DHT22;15049;48.114;11.486;2022-07-06T11:13:47;25.10;14.90
27637;DHT22;15049;48.114;11.486;2022-07-06T11:16:13;25.40;15.50
27637;DHT22;15049;48.114;11.486;2022-07-06T11:18:39;25.40;14.60
27637;DHT22;15049;48.114;11.486;2022-07-06T11:21:20;25.40;14.40
27637;DHT22;15049;48.114;11.486;2022-07-06T11:23:47;25.60;14.60
27637;DHT22;15049;48.114;11.486;2022-07-06T11:26:13;25.70;14.20
27637;DHT22;15049;48.114;11.486;2022-07-06T11:28:40;26.00;14.70
27637;DHT22;15049;48.114;11.486;2022-07-06T11:31:07;26.10;13.80
27637;DHT22;15049;48.114;11.486;2022-07-06T11:33:33;26.10;13.50
27637;DHT22;15049;48.114;11.486;2022-07-06T11:36:13;25.70;14.20
27637;DHT22;15049;48.114;11.486;2022-07-06T11:38:39;25.50;14.10
27637;DHT22;15049;48.114;11.486;2022-07-06T11:41:05;25.40;14.60
27637;DHT22;15049;48.114;11.486;2022-07-06T11:43:31;25.60;14.20
27637;DHT22;15049;48.114;11.486;2022-07-06T11:45:57;25.50;13.60
27637;DHT22;15049;48.114;11.486;2022-07-06T11:48:24;25.80;14.00
27637;DHT22;15049;48.114;11.486;2022-07-06T11:50:57;26.10;12.90
27637;DHT22;15049;48.114;11.486;2022-07-06T11:53:23;26.40;13.90
27637;DHT22;15049;48.114;11.486;2022-07-06T11:55:49;26.20;13.20
27637;DHT22;15049;48.114;11.486;2022-07-06T11:58:16;26.50;13.90
27637;DHT22;15049;48.114;11.486;2022-07-06T12:01:03;27.00;13.30
27637;DHT22;15049;48.114;11.486;2022-07-06T12:03:30;26.90;12.30
27637;DHT22;15049;48.114;11.486;2022-07-06T12:05:58;27.00;12.30
27637;DHT22;15049;48.114;11.486;2022-07-06T12:08:24;27.20;12.40
27637;DHT22;15049;48.114;11.486;2022-07-06T12:10:49;26.50;11.80
27637;DHT22;15049;48.114;11.486;2022-07-06T12:13:15;25.90;13.00
27637;DHT22;15049;48.114;11.486;2022-07-06T12:15:41;26.00;13.00
27637;DHT22;15049;48.114;11.486;2022-07-06T12:18:07;26.10;12.90
27637;DHT22;15049;48.114;11.486;2022-07-06T12:20:34;26.20;12.90
27637;DHT22;15049;48.114;11.486;2022-07-06T12:23:01;26.70;12.50
27637;DHT22;15049;48.114;11.486;2022-07-06T12:25:30;26.80;11.20
27637;DHT22;15049;48.114;11.486;2022-07-06T12:27:56;26.90;11.70
27637;DHT22;15049;48.114;11.486;2022-07-06T12:30:22;26.70;12.00
27637;DHT22;15049;48.114;11.486;2022-07-06T12:33:10;26.20;11.80
27637;DHT22;15049;48.114;11.486;2022-07-06T12:35:38;26.30;12.70
27637;DHT22;15049;48.114;11.486;2022-07-06T12:38:04;26.70;12.10
27637;DHT22;15049;48.114;11.486;2022-07-06T12:40:30;27.10;12.00
27637;DHT22;15049;48.114;11.486;2022-07-06T12:42:55;26.90;11.50
27637;DHT22;15049;48.114;11.486;2022-07-06T12:45:26;26.30;11.70
27637;DHT22;15049;48.114;11.486;2022-07-06T12:47:59;25.70;12.10
27637;DHT22;15049;48.114;11.486;2022-07-06T12:50:32;26.10;12.10
27637;DHT22;15049;48.114;11.486;2022-07-06T12:53:00;26.10;12.00
27637;DHT22;15049;48.114;11.486;2022-07-06T12:55:27;26.00;13.00
27637;DHT22;15049;48.114;11.486;2022-07-06T12:57:54;26.20;12.90
27637;DHT22;15049;48.114;11.486;2022-07-06T13:00:20;26.50;11.90
27637;DHT22;15049;48.114;11.486;2022-07-06T13:02:48;26.80;12.20
27637;DHT22;15049;48.114;11.486;2022-07-06T13:05:22;27.30;11.30
27637;DHT22;15049;48.114;11.486;2022-07-06T13:07:55;27.80;11.30
27637;DHT22;15049;48.114;11.486;2022-07-06T13:10:24;27.80;11.50
27637;DHT22;15049;48.114;11.486;2022-07-06T13:12:50;28.10;12.00
27637;DHT22;15049;48.114;11.486;2022-07-06T13:15:16;27.80;11.40
27637;DHT22;15049;48.114;11.486;2022-07-06T13:17:42;27.80;10.50
27637;DHT22;15049;48.114;11.486;2022-07-06T13:20:10;27.70;10.90
27637;DHT22;15049;48.114;11.486;2022-07-06T13:22:36;28.10;10.90
27637;DHT22;15049;48.114;11.486;2022-07-06T13:25:03;28.60;9.60
27637;DHT22;15049;48.114;11.486;2022-07-06T13:27:30;28.70;9.80
27637;DHT22;15049;48.114;11.486;2022-07-06T13:29:56;28.60;10.20
27637;DHT22;15049;48.114;11.486;2022-07-06T13:32:22;28.90;9.90
27637;DHT22;15049;48.114;11.486;2022-07-06T13:34:48;28.70;9.10
27637;DHT22;15049;48.114;11.486;2022-07-06T13:37:13;29.10;9.00
27637;DHT22;15049;48.114;11.486;2022-07-06T13:39:39;28.70;8.90
27637;DHT22;15049;48.114;11.486;2022-07-06T13:42:05;28.60;9.40
27637;DHT22;15049;48.114;11.486;2022-07-06T13:44:34;28.50;8.60
27637;DHT22;15049;48.114;11.486;2022-07-06T13:47:00;28.50;8.70
27637;DHT22;15049;48.114;11.486;2022-07-06T13:49:26;28.70;9.30
27637;DHT22;15049;48.114;11.486;2022-07-06T13:51:52;28.90;8.40
27637;DHT22;15049;48.114;11.486;2022-07-06T13:54:17;28.70;8.60
27637;DHT22;15049;48.114;11.486;2022-07-06T13:56:43;28.40;10.10
27637;DHT22;15049;48.114;11.486;2022-07-06T13:59:09;28.40;10.40
27637;DHT22;15049;48.114;11.486;2022-07-06T14:01:37;28.40;10.40
27637;DHT22;15049;48.114;11.486;2022-07-06T14:04:03;28.20;10.60
27637;DHT22;15049;48.114;11.486;2022-07-06T14:06:29;28.40;9.30
27637;DHT22;15049;48.114;11.486;2022-07-06T14:08:55;28.30;9.00
27637;DHT22;15049;48.114;11.486;2022-07-06T14:11:20;28.40;9.00
27637;DHT22;15049;48.114;11.486;2022-07-06T14:13:46;28.70;8.90
27637;DHT22;15049;48.114;11.486;2022-07-06T14:16:12;28.40;9.00
27637;DHT22;15049;48.114;11.486;2022-07-06T14:18:39;28.70;8.20
27637;DHT22;15049;48.114;11.486;2022-07-06T14:21:06;29.00;7.90
27637;DHT22;15049;48.114;11.486;2022-07-06T14:23:32;29.00;8.10
27637;DHT22;15049;48.114;11.486;2022-07-06T14:25:58;29.20;7.60
27637;DHT22;15049;48.114;11.486;2022-07-06T14:28:24;29.30;7.30
27637;DHT22;15049;48.114;11.486;2022-07-06T14:30:50;29.40;7.10
27637;DHT22;15049;48.114;11.486;2022-07-06T14:33:16;29.60;7.20
27637;DHT22;15049;48.114;11.486;2022-07-06T14:35:45;29.40;7.20
27637;DHT22;15049;48.114;11.486;2022-07-06T14:38:14;29.10;7.70
27637;DHT22;15049;48.114;11.486;2022-07-06T14:40:40;28.90;8.00
27637;DHT22;15049;48.114;11.486;2022-07-06T14:43:06;28.80;8.20
27637;DHT22;15049;48.114;11.486;2022-07-06T14:45:32;28.50;8.10
27637;DHT22;15049;48.114;11.486;2022-07-06T14:47:57;27.70;9.40
27637;DHT22;15049;48.114;11.486;2022-07-06T14:50:23;27.90;10.20
27637;DHT22;15049;48.114;11.486;2022-07-06T14:52:51;28.60;9.00
27637;DHT22;15049;48.114;11.486;2022-07-06T14:55:17;28.90;9.00
27637;DHT22;15049;48.114;11.486;2022-07-06T14:57:43;29.30;8.00
27637;DHT22;15049;48.114;11.486;2022-07-06T15:00:10;29.70;7.70
27637;DHT22;15049;48.114;11.486;2022-07-06T15:02:36;29.60;7.70
27637;DHT22;15049;48.114;11.486;2022-07-06T15:05:03;29.50;7.10
27637;DHT22;15049;48.114;11.486;2022-07-06T15:07:29;29.60;7.70
27637;DHT22;15049;48.114;11.486;2022-07-06T15:09:57;29.90;7.00
27637;DHT22;15049;48.114;11.486;2022-07-06T15:12:22;29.70;6.80
27637;DHT22;15049;48.114;11.486;2022-07-06T15:14:48;29.60;7.50